Time;durP1;ratioP1;P1;durP2;ratioP2;P2;SDS_P1;SDS_P2;PMS_P1;PMS_P2;Temp;Humidity;BMP_temperature;BMP_pressure;BME280_temperature;BME280_humidity;BME280_pressure;Samples;Min_cycle;Max_cycle;Signal;HPM_P1;HPM_P2
2021/11/10 00:00:27;;;;;;;;;27.75;24.50;;;;;15.52;88.53;102019.41;5057863;28;45750;-88
2021/11/10 00:02:53;;;;;;;;;30.75;23.00;;;;;15.38;88.87;102030.16;5062865;28;45513;-88
2021/11/10 00:05:18;;;;;;;;;26.75;25.50;;;;;15.30;90.23;102021.78;5070406;28;45482;-89
2021/11/10 00:07:45;;;;;;;;;27.00;21.00;;;;;15.31;90.97;102023.50;5068818;28;45429;-88
2021/11/10 00:10:12;;;;;;;;;28.25;21.50;;;;;15.30;90.43;102013.81;5060785;28;45689;-88
2021/11/10 00:12:38;;;;;;;;;33.25;27.00;;;;;15.27;90.35;102020.22;5077137;28;45307;-89
2021/11/10 00:15:05;;;;;;;;;30.75;25.25;;;;;15.32;90.38;102009.25;5054051;28;45719;-89
2021/11/10 00:17:30;;;;;;;;;24.25;22.25;;;;;15.20;90.25;102004.75;5068388;28;47653;-89
2021/11/10 00:19:56;;;;;;;;;33.25;25.75;;;;;15.26;90.69;102004.34;5058798;28;45510;-88
2021/11/10 00:22:21;;;;;;;;;34.50;28.00;;;;;15.25;91.34;102011.47;5066360;28;45453;-88
2021/11/10 00:24:47;;;;;;;;;44.25;26.25;;;;;15.32;91.46;102002.13;5077287;28;45486;-88
2021/11/10 00:27:12;;;;;;;;;34.25;27.75;;;;;15.26;90.91;102005.19;5075823;28;45353;-89
2021/11/10 00:29:38;;;;;;;;;33.00;25.25;;;;;15.23;91.34;101981.44;5072133;28;45486;-88
2021/11/10 00:32:04;;;;;;;;;41.75;30.75;;;;;15.26;92.24;101970.59;5068352;28;45407;-89
2021/11/10 00:34:29;;;;;;;;;35.50;33.25;;;;;15.24;91.71;101972.50;5076173;28;45352;-89
2021/11/10 00:36:54;;;;;;;;;38.00;31.75;;;;;15.24;92.12;101982.28;5083316;28;45460;-88
2021/11/10 00:39:20;;;;;;;;;42.00;35.50;;;;;15.22;92.44;101987.72;5064268;28;46004;-88
2021/11/10 00:41:45;;;;;;;;;45.50;36.50;;;;;15.31;92.24;102003.06;5053785;28;45356;-88
2021/11/10 00:44:10;;;;;;;;;42.50;35.75;;;;;15.20;92.32;101999.44;5068239;28;45278;-89
2021/11/10 00:46:36;;;;;;;;;50.25;36.00;;;;;15.12;93.09;101988.44;5056301;28;46951;-90
2021/11/10 00:49:01;;;;;;;;;38.50;33.75;;;;;15.13;93.17;101988.31;5064162;28;45397;-88
2021/11/10 00:51:28;;;;;;;;;51.00;37.50;;;;;15.16;93.53;101989.94;5082464;28;45351;-89
2021/11/10 00:53:54;;;;;;;;;37.00;33.50;;;;;15.21;94.63;101985.16;5081815;28;45449;-89
2021/11/10 00:56:20;;;;;;;;;48.50;37.50;;;;;15.22;93.22;101974.41;5063393;28;48163;-89
2021/11/10 00:58:45;;;;;;;;;49.50;38.75;;;;;15.22;93.68;101971.75;5061835;28;45430;-89
2021/11/10 01:01:11;;;;;;;;;38.25;36.50;;;;;15.21;93.21;101966.53;5056957;28;45518;-89
2021/11/10 01:03:36;;;;;;;;;46.50;39.75;;;;;15.27;93.70;101971.44;5055959;28;45542;-89
2021/11/10 01:06:02;;;;;;;;;49.25;38.25;;;;;15.24;93.03;101955.69;5061790;28;48203;-89
2021/11/10 01:08:27;;;;;;;;;51.25;36.75;;;;;15.18;93.84;101934.81;5070564;28;45367;-89
2021/11/10 01:10:56;;;;;;;;;44.00;36.00;;;;;15.18;94.69;101935.69;5054390;28;45453;-89
2021/11/10 01:13:22;;;;;;;;;45.00;36.00;;;;;15.11;94.54;101938.88;5066737;28;45419;-89
2021/11/10 01:15:48;;;;;;;;;35.50;30.00;;;;;15.14;94.35;101944.81;5045276;28;48201;-89
2021/11/10 01:18:14;;;;;;;;;30.25;26.25;;;;;15.16;95.19;101948.22;5056800;28;45608;-89
2021/11/10 01:20:40;;;;;;;;;45.00;32.25;;;;;15.10;94.78;101939.81;5056479;28;45959;-89
2021/11/10 01:23:06;;;;;;;;;35.50;29.25;;;;;15.15;93.85;101935.88;5057314;28;45490;-89
2021/11/10 01:25:32;;;;;;;;;31.75;27.25;;;;;15.16;94.81;101942.03;5063764;28;47628;-89
2021/11/10 01:27:59;;;;;;;;;49.00;38.00;;;;;15.14;95.17;101941.28;5065172;28;45847;-90
2021/11/10 01:30:24;;;;;;;;;47.00;36.00;;;;;15.12;96.77;101946.72;5064609;28;45482;-89
2021/11/10 01:32:50;;;;;;;;;47.00;37.50;;;;;15.11;97.82;101944.19;5049386;28;45415;-89
2021/11/10 01:35:17;;;;;;;;;46.75;40.75;;;;;15.14;97.51;101957.25;5071689;28;45402;-89
2021/11/10 01:37:43;;;;;;;;;45.50;37.25;;;;;15.12;98.24;101952.03;5065828;28;45354;-89
2021/11/10 01:40:10;;;;;;;;;50.75;39.00;;;;;15.14;97.26;101944.81;5064362;28;45442;-90
2021/11/10 01:42:38;;;;;;;;;50.50;38.25;;;;;15.16;97.41;101952.69;5068707;28;46083;-90
2021/11/10 01:45:04;;;;;;;;;63.00;43.00;;;;;15.12;97.68;101952.03;5079909;28;45623;-89
2021/11/10 01:47:29;;;;;;;;;49.25;38.50;;;;;15.07;96.89;101950.66;5066653;28;45355;-89
2021/11/10 01:49:55;;;;;;;;;43.25;28.25;;;;;15.07;96.53;101951.50;5063525;28;45477;-89
2021/11/10 01:52:20;;;;;;;;;47.00;38.25;;;;;15.04;96.20;101942.88;5067924;28;45443;-89
2021/11/10 01:54:46;;;;;;;;;52.75;39.25;;;;;15.02;96.11;101929.69;5055980;28;46927;-89
2021/11/10 01:57:12;;;;;;;;;44.25;37.00;;;;;15.05;96.32;101944.56;5058945;28;45333;-89
2021/11/10 01:59:39;;;;;;;;;57.25;39.00;;;;;15.02;96.44;101948.31;5080727;28;45330;-89
2021/11/10 02:02:11;;;;;;;;;50.25;37.25;;;;;15.04;96.38;101949.03;5071696;28;45460;-89
2021/11/10 02:04:39;;;;;;;;;44.00;36.50;;;;;15.01;96.62;101945.75;5072097;28;45382;-89
2021/11/10 02:07:05;;;;;;;;;55.00;38.25;;;;;14.97;96.46;101950.41;5070383;28;45333;-89
2021/11/10 02:09:30;;;;;;;;;51.75;39.00;;;;;14.94;96.97;101951.47;5079695;28;45580;-89
2021/11/10 02:11:58;;;;;;;;;46.00;37.25;;;;;14.96;96.90;101946.91;5065647;28;45403;-89
2021/11/10 02:14:26;;;;;;;;;52.25;39.50;;;;;14.92;96.93;101950.72;5062122;28;45499;-89
2021/11/10 02:16:52;;;;;;;;;57.50;42.00;;;;;14.88;97.16;101941.25;5073619;28;45813;-90
2021/11/10 02:19:18;;;;;;;;;50.75;39.75;;;;;14.86;97.83;101931.66;5049281;28;45299;-89
2021/11/10 02:21:48;;;;;;;;;44.75;37.00;;;;;14.88;98.56;101930.59;5044942;28;45265;-90
2021/11/10 02:24:14;;;;;;;;;42.50;36.25;;;;;14.84;98.24;101933.59;5042564;28;47355;-89
2021/11/10 02:26:44;;;;;;;;;41.25;34.25;;;;;14.80;98.17;101935.59;5068533;28;45824;-89
2021/11/10 02:29:25;;;;;;;;;53.00;39.00;;;;;14.78;98.06;101932.16;5060989;28;45331;-89
2021/11/10 02:31:52;;;;;;;;;49.75;37.50;;;;;14.80;98.30;101932.91;5080036;28;45436;-90
2021/11/10 02:34:19;;;;;;;;;52.00;39.75;;;;;14.71;98.14;101919.38;5071575;28;45361;-89
2021/11/10 02:36:45;;;;;;;;;53.00;40.25;;;;;14.70;98.36;101915.88;5071697;28;45903;-90
2021/11/10 02:39:17;;;;;;;;;8.25;6.75;;;;;14.82;98.31;101920.38;5068688;28;45276;-89
2021/11/10 02:41:46;;;;;;;;;42.75;37.00;;;;;14.75;98.65;101916.41;5044544;28;45616;-90
2021/11/10 02:44:13;;;;;;;;;41.50;36.75;;;;;14.77;98.51;101908.31;5061456;28;45427;-89
2021/11/10 02:46:39;;;;;;;;;33.25;30.25;;;;;14.75;98.44;101902.28;5055100;28;45415;-89
2021/11/10 02:49:04;;;;;;;;;57.75;38.25;;;;;14.76;98.83;101907.47;5069705;28;45261;-89
2021/11/10 02:51:30;;;;;;;;;42.50;36.25;;;;;14.78;99.25;101910.88;5045140;28;46107;-90
2021/11/10 02:53:56;;;;;;;;;47.25;37.75;;;;;14.77;98.67;101908.31;5057979;28;47462;-89
2021/11/10 02:56:22;;;;;;;;;43.00;33.75;;;;;14.77;99.19;101908.31;5071025;28;45263;-90
2021/11/10 02:58:47;;;;;;;;;48.25;37.25;;;;;14.72;98.93;101910.44;5071072;28;45265;-90
2021/11/10 03:01:14;;;;;;;;;51.25;36.25;;;;;14.60;99.48;101910.31;5066850;28;45519;-90
2021/11/10 03:03:39;;;;;;;;;47.00;36.00;;;;;14.62;99.51;101910.22;5065219;28;46611;-90
2021/11/10 03:06:04;;;;;;;;;48.25;37.00;;;;;14.59;99.50;101899.75;5076773;28;45241;-89
2021/11/10 03:08:30;;;;;;;;;40.75;33.75;;;;;14.56;99.61;101907.97;5051203;28;45454;-89
2021/11/10 03:10:56;;;;;;;;;44.50;39.00;;;;;14.54;99.80;101901.88;5055820;28;45648;-90
2021/11/10 03:13:22;;;;;;;;;52.00;37.75;;;;;14.56;100.00;101897.34;5073053;28;45367;-89
2021/11/10 03:15:48;;;;;;;;;51.00;37.00;;;;;14.49;100.00;101885.38;5069724;28;45418;-89
2021/11/10 03:18:14;;;;;;;;;41.50;36.00;;;;;14.52;100.00;101898.47;5060847;28;45473;-88
2021/11/10 03:20:40;;;;;;;;;50.25;39.00;;;;;14.54;100.00;101897.41;5061130;28;45597;-89
2021/11/10 03:23:07;;;;;;;;;60.00;42.50;;;;;14.55;100.00;101900.94;5064115;28;47488;-90
2021/11/10 03:25:33;;;;;;;;;64.25;49.25;;;;;14.62;100.00;101909.34;5083173;28;45346;-90
2021/11/10 03:27:59;;;;;;;;;58.50;45.50;;;;;14.43;100.00;101909.69;5080828;28;45328;-90
2021/11/10 03:30:25;;;;;;;;;65.50;47.50;;;;;14.40;100.00;101910.75;5062079;28;45416;-90
2021/11/10 03:32:55;;;;;;;;;64.25;49.00;;;;;14.38;100.00;101903.81;5081351;28;45477;-89
2021/11/10 03:35:21;;;;;;;;;64.50;49.50;;;;;14.30;100.00;101908.75;5083233;28;45527;-89
2021/11/10 03:37:47;;;;;;;;;67.25;50.25;;;;;14.23;100.00;101913.59;5076949;28;45315;-89
2021/11/10 03:40:13;;;;;;;;;74.75;51.50;;;;;14.12;100.00;101924.91;5085688;28;44614;-89
2021/11/10 03:42:39;;;;;;;;;65.75;51.50;;;;;14.00;100.00;101931.03;5085501;28;45514;-89
2021/11/10 03:45:06;;;;;;;;;69.25;51.25;;;;;14.04;100.00;101927.19;5061543;28;45472;-90
2021/11/10 03:47:32;;;;;;;;;71.75;54.00;;;;;13.85;100.00;101916.88;5063364;28;45471;-89
2021/11/10 03:49:57;;;;;;;;;68.75;48.25;;;;;13.82;100.00;101913.59;5060744;28;45399;-89
2021/11/10 03:52:23;;;;;;;;;76.50;56.25;;;;;13.82;100.00;101908.28;5052139;28;47798;-89
2021/11/10 03:54:49;;;;;;;;;68.75;53.00;;;;;13.79;100.00;101916.44;5080385;28;45481;-89
2021/11/10 03:57:15;;;;;;;;;67.25;46.00;;;;;13.79;100.00;101921.72;5064499;28;45634;-89
2021/11/10 03:59:40;;;;;;;;;63.00;50.00;;;;;13.66;100.00;101915.47;5082035;28;45348;-90
2021/11/10 04:02:09;;;;;;;;;63.75;46.50;;;;;13.76;100.00;101921.91;5071352;28;46477;-89
2021/11/10 04:04:34;;;;;;;;;68.00;51.25;;;;;13.81;100.00;101926.00;5046270;28;45533;-89
2021/11/10 04:07:00;;;;;;;;;65.75;50.75;;;;;13.63;100.00;101944.88;5061313;28;45498;-89
2021/11/10 04:09:26;;;;;;;;;65.75;51.75;;;;;13.63;100.00;101945.72;5059597;28;45698;-90
2021/11/10 04:11:51;;;;;;;;;66.75;52.50;;;;;13.55;100.00;101973.69;5084179;28;45441;-89
2021/11/10 04:14:16;;;;;;;;;75.75;55.00;;;;;13.51;100.00;101999.53;5086145;28;45366;-90
2021/11/10 04:16:42;;;;;;;;;79.25;59.00;;;;;13.48;100.00;102005.00;5072340;28;45493;-89
2021/11/10 04:19:07;;;;;;;;;75.25;55.75;;;;;13.48;100.00;101981.13;5075213;28;45480;-89
2021/11/10 04:21:33;;;;;;;;;68.25;53.75;;;;;13.40;100.00;101978.09;5069872;28;45674;-89
2021/11/10 04:23:59;;;;;;;;;70.50;54.00;;;;;13.36;100.00;101988.03;5080088;28;45355;-89
2021/11/10 04:26:30;;;;;;;;;64.50;49.50;;;;;13.34;100.00;101979.31;5051972;28;45679;-89
2021/11/10 04:28:56;;;;;;;;;60.50;47.75;;;;;13.25;100.00;101968.41;5082422;28;45395;-89
2021/11/10 04:31:23;;;;;;;;;67.25;49.50;;;;;13.23;100.00;101967.63;5080639;28;45437;-90
2021/11/10 04:33:51;;;;;;;;;66.00;51.50;;;;;13.19;100.00;101963.47;5073667;28;45430;-89
2021/11/10 04:36:17;;;;;;;;;60.25;45.50;;;;;13.11;100.00;101969.16;5062071;28;45458;-89
2021/11/10 04:38:44;;;;;;;;;58.50;43.75;;;;;13.07;100.00;101954.38;5055259;28;45485;-89
2021/11/10 04:41:10;;;;;;;;;57.75;46.50;;;;;13.14;100.00;101958.41;5079531;28;45586;-89
2021/11/10 04:43:35;;;;;;;;;55.00;45.25;;;;;13.23;100.00;101954.34;5060272;28;45892;-89
2021/11/10 04:48:41;;;;;;;;;57.25;44.00;;;;;13.29;100.00;101964.63;5067950;28;45363;-89
2021/11/10 04:51:10;;;;;;;;;58.50;43.50;;;;;13.38;100.00;101964.91;5082349;28;46171;-89
2021/11/10 04:53:38;;;;;;;;;59.25;45.75;;;;;13.41;100.00;101966.53;5082610;28;45682;-89
2021/11/10 04:56:04;;;;;;;;;67.00;48.00;;;;;13.37;100.00;101965.03;5065422;28;45383;-89
2021/11/10 04:58:30;;;;;;;;;58.00;44.25;;;;;13.36;100.00;101964.16;5083190;28;45157;-90
2021/11/10 05:00:56;;;;;;;;;61.75;44.50;;;;;13.32;100.00;101957.31;5060133;28;48053;-89
2021/11/10 05:03:21;;;;;;;;;54.50;41.75;;;;;13.29;100.00;101938.94;5061695;28;45351;-89
2021/11/10 05:05:47;;;;;;;;;56.50;41.50;;;;;13.26;100.00;101925.88;5063590;28;45491;-90
2021/11/10 05:08:12;;;;;;;;;48.75;40.00;;;;;13.26;100.00;101917.06;5055401;28;45899;-89
2021/11/10 05:10:37;;;;;;;;;59.00;41.25;;;;;13.21;100.00;101929.72;5079333;28;45500;-89
2021/11/10 05:13:03;;;;;;;;;54.00;40.75;;;;;13.18;100.00;101920.16;5052824;28;45477;-89
2021/11/10 05:15:29;;;;;;;;;54.50;42.00;;;;;13.14;100.00;101917.78;5066429;28;45165;-90
2021/11/10 05:17:54;;;;;;;;;51.75;40.50;;;;;13.17;100.00;101915.81;5072724;28;45499;-89
2021/11/10 05:20:20;;;;;;;;;54.50;42.75;;;;;13.19;100.00;101903.31;5062838;28;46906;-89
2021/11/10 05:22:45;;;;;;;;;48.75;37.50;;;;;13.18;100.00;101898.09;5069406;28;45548;-89
2021/11/10 05:25:12;;;;;;;;;44.00;40.00;;;;;13.19;100.00;101905.13;5066524;28;45480;-89
2021/11/10 05:27:37;;;;;;;;;33.50;29.50;;;;;13.12;100.00;101905.41;5068730;28;45522;-89
2021/11/10 05:30:08;;;;;;;;;50.00;38.50;;;;;13.07;100.00;101899.56;5079236;28;45493;-89
2021/11/10 05:32:34;;;;;;;;;49.25;40.00;;;;;13.02;100.00;101903.41;5076505;28;45232;-89
2021/11/10 05:34:59;;;;;;;;;49.75;39.00;;;;;13.05;100.00;101898.78;5069775;28;45421;-89
2021/11/10 05:37:27;;;;;;;;;50.75;37.25;;;;;13.07;100.00;101894.25;5055990;28;45409;-89
2021/11/10 05:39:52;;;;;;;;;49.50;36.75;;;;;13.15;100.00;101893.81;5064284;28;47984;-89
2021/11/10 05:42:18;;;;;;;;;50.50;36.00;;;;;13.15;100.00;101893.81;5064251;28;45546;-89
2021/11/10 05:44:43;;;;;;;;;41.00;36.50;;;;;13.13;100.00;101887.72;5047181;28;45582;-88
2021/11/10 05:47:09;;;;;;;;;45.50;37.25;;;;;13.14;100.00;101883.28;5059330;28;45634;-90
2021/11/10 05:49:36;;;;;;;;;41.50;37.00;;;;;13.18;100.00;101893.66;5073793;28;45553;-89
2021/11/10 05:52:01;;;;;;;;;41.50;37.50;;;;;13.15;100.00;101877.91;5047462;28;45409;-88
2021/11/10 05:54:27;;;;;;;;;51.00;37.25;;;;;13.09;100.00;101871.16;5055369;28;45623;-89
2021/11/10 05:56:53;;;;;;;;;48.25;35.50;;;;;13.03;100.00;101862.69;5046480;28;45729;-90
2021/11/10 05:59:18;;;;;;;;;37.50;31.25;;;;;12.98;100.00;101878.88;5051506;28;47275;-88
2021/11/10 06:01:43;;;;;;;;;43.00;32.75;;;;;13.02;100.00;101895.44;5044742;28;45414;-89
2021/11/10 06:04:19;;;;;;;;;45.00;35.50;;;;;13.03;100.00;101905.97;5134347;27;45344;-88
2021/11/10 06:06:45;;;;;;;;;43.25;33.25;;;;;12.97;100.00;101898.38;5105020;27;45868;-90
2021/11/10 06:09:10;;;;;;;;;41.50;32.50;;;;;13.09;100.00;101905.63;5141067;27;45532;-87
2021/11/10 06:11:36;;;;;;;;;35.50;30.50;;;;;13.12;100.00;101920.47;5139763;27;45395;-90
2021/11/10 06:14:02;;;;;;;;;37.50;31.50;;;;;13.20;100.00;101931.53;5122770;27;47133;-91
2021/11/10 06:16:28;;;;;;;;;46.25;31.00;;;;;13.25;100.00;101945.38;5118118;27;45909;-91
2021/11/10 06:18:54;;;;;;;;;47.50;34.25;;;;;13.24;100.00;101945.47;5118238;27;45724;-88
2021/11/10 06:21:20;;;;;;;;;49.25;34.50;;;;;13.22;100.00;101953.50;5136712;27;44862;-90
2021/11/10 06:23:45;;;;;;;;;42.00;26.00;;;;;13.23;100.00;101941.97;5137213;27;46502;-88
2021/11/10 06:26:10;;;;;;;;;47.00;32.00;;;;;13.24;100.00;101954.28;5137985;27;45417;-88
2021/11/10 06:28:36;;;;;;;;;41.75;32.50;;;;;13.22;100.00;101947.34;5118906;27;45350;-87
2021/11/10 06:31:02;;;;;;;;;38.50;34.25;;;;;13.40;100.00;101957.72;5136094;27;45522;-87
2021/11/10 06:33:28;;;;;;;;;41.25;32.50;;;;;13.47;100.00;101960.88;5130702;27;45898;-87
2021/11/10 06:35:53;;;;;;;;;44.25;31.25;;;;;13.53;100.00;101971.09;5119811;27;45474;-84
2021/11/10 06:38:18;;;;;;;;;46.75;32.50;;;;;13.53;100.00;101972.91;5121118;27;45441;-84
2021/11/10 06:40:44;;;;;;;;;44.75;29.25;;;;;13.53;100.00;101973.78;5118479;27;45618;-87
2021/11/10 06:43:09;;;;;;;;;43.50;33.50;;;;;13.56;100.00;101983.34;5119437;27;48330;-85
2021/11/10 06:45:34;;;;;;;;;48.75;36.00;;;;;13.54;100.00;101986.09;5132879;27;45373;-85
2021/11/10 06:48:00;;;;;;;;;38.25;31.75;;;;;13.59;100.00;101993.75;5137461;27;45465;-84
2021/11/10 06:50:26;;;;;;;;;38.50;30.50;;;;;13.54;100.00;102009.13;5128301;27;45439;-84
2021/11/10 06:52:51;;;;;;;;;47.25;38.00;;;;;13.51;100.00;102014.59;5137289;27;46244;-85
2021/11/10 06:55:17;;;;;;;;;54.00;35.25;;;;;13.59;100.00;102020.31;5118193;27;45339;-84
2021/11/10 06:57:42;;;;;;;;;50.50;39.75;;;;;13.58;100.00;102030.06;5137919;27;45563;-85
2021/11/10 07:00:11;;;;;;;;;53.50;40.25;;;;;13.53;100.00;102026.00;5137805;27;45610;-84
2021/11/10 07:02:37;;;;;;;;;52.75;39.50;;;;;13.46;100.00;102038.78;5135217;27;46355;-84
2021/11/10 07:05:03;;;;;;;;;48.50;42.00;;;;;13.44;100.00;102044.16;5118586;27;45366;-84
2021/11/10 07:07:28;;;;;;;;;55.00;39.75;;;;;13.39;100.00;102051.53;5118453;27;45331;-84
2021/11/10 07:09:54;;;;;;;;;49.75;41.75;;;;;13.46;100.00;102041.44;5136842;27;45446;-84
2021/11/10 07:12:19;;;;;;;;;60.75;44.75;;;;;13.32;100.00;102036.06;5137267;27;45519;-84
2021/11/10 07:14:44;;;;;;;;;58.25;40.25;;;;;13.29;100.00;102030.94;5110072;27;45437;-84
2021/11/10 07:17:10;;;;;;;;;52.75;41.25;;;;;13.25;100.00;102024.97;5104526;27;46070;-84
2021/11/10 07:19:35;;;;;;;;;49.00;39.75;;;;;13.20;100.00;102011.09;5129519;27;45285;-84
2021/11/10 07:22:01;;;;;;;;;51.75;37.50;;;;;13.22;100.00;102021.63;5135682;27;45734;-85
2021/11/10 07:24:26;;;;;;;;;51.25;41.25;;;;;13.15;100.00;102014.97;5137591;27;45633;-85
2021/11/10 07:26:52;;;;;;;;;55.50;40.75;;;;;13.14;100.00;102006.16;5120086;27;45243;-84
2021/11/10 07:29:17;;;;;;;;;53.25;40.75;;;;;13.18;100.00;102006.84;5138363;27;44799;-83
2021/11/10 07:31:43;;;;;;;;;45.25;37.50;;;;;12.99;100.00;102017.63;5127636;27;45338;-84
2021/11/10 07:34:09;;;;;;;;;54.75;42.50;;;;;13.02;100.00;102022.72;5105378;27;45416;-86
2021/11/10 07:36:34;;;;;;;;;47.00;39.00;;;;;13.03;100.00;102014.69;5103950;27;45470;-86
2021/11/10 07:39:00;;;;;;;;;49.00;39.00;;;;;13.05;100.00;102001.34;5121414;27;45459;-87
2021/11/10 07:41:32;;;;;;;;;46.50;38.50;;;;;13.16;100.00;102004.28;5123272;27;45416;-86
2021/11/10 07:43:59;;;;;;;;;58.50;41.25;;;;;13.14;100.00;102014.09;5104535;27;45592;-88
2021/11/10 07:46:30;;;;;;;;;52.25;41.50;;;;;13.18;100.00;102001.53;5122907;27;45728;-88
2021/11/10 07:48:56;;;;;;;;;49.25;38.50;;;;;13.17;100.00;101991.88;5104437;27;45863;-88
2021/11/10 07:51:22;;;;;;;;;61.00;44.25;;;;;13.25;100.00;101995.78;5123599;27;45428;-88
2021/11/10 07:53:48;;;;;;;;;49.75;39.75;;;;;13.35;100.00;102001.41;5105468;27;45334;-87
2021/11/10 07:56:14;;;;;;;;;50.00;41.25;;;;;13.41;100.00;101993.06;5125898;27;45408;-85
2021/11/10 07:58:40;;;;;;;;;57.75;42.50;;;;;13.71;100.00;101993.03;5131434;27;45477;-86
2021/11/10 08:01:07;;;;;;;;;59.25;43.00;;;;;13.88;100.00;101992.00;5123773;27;45486;-87
2021/11/10 08:03:34;;;;;;;;;61.00;40.50;;;;;14.04;100.00;101985.63;5122298;27;45207;-86
2021/11/10 08:06:00;;;;;;;;;57.25;40.75;;;;;13.93;100.00;101996.06;5104138;27;45418;-86
2021/11/10 08:08:26;;;;;;;;;54.00;38.75;;;;;13.97;100.00;101996.75;5099678;27;45461;-87
2021/11/10 08:10:54;;;;;;;;;56.50;44.25;;;;;14.00;100.00;102000.06;5106164;27;46994;-86
2021/11/10 08:13:20;;;;;;;;;47.75;38.50;;;;;13.99;100.00;102000.16;5106195;27;45884;-86
2021/11/10 08:15:46;;;;;;;;;61.75;45.25;;;;;14.08;100.00;102008.41;5130873;27;45473;-87
2021/11/10 08:18:11;;;;;;;;;57.25;46.50;;;;;14.40;100.00;102018.84;5131659;27;45434;-87
2021/11/10 08:20:37;;;;;;;;;59.50;45.75;;;;;14.35;100.00;102018.25;5106252;27;46951;-87
2021/11/10 08:23:03;;;;;;;;;56.75;44.50;;;;;14.58;100.00;102013.22;5122075;27;45353;-86
2021/11/10 08:25:28;;;;;;;;;58.00;43.50;;;;;14.49;100.00;102007.63;5127790;27;45338;-86
2021/11/10 08:27:55;;;;;;;;;60.50;44.50;;;;;14.78;100.00;102011.09;5110750;27;45486;-86
2021/11/10 08:30:22;;;;;;;;;54.50;44.75;;;;;14.83;100.00;102017.81;5100048;27;47985;-87
2021/11/10 08:32:48;;;;;;;;;60.50;47.25;;;;;14.86;100.00;102025.59;5104440;27;45337;-86
2021/11/10 08:35:14;;;;;;;;;60.75;46.00;;;;;14.86;100.00;102030.06;5108572;27;45420;-86
2021/11/10 08:37:40;;;;;;;;;57.25;45.50;;;;;14.90;100.00;102023.59;5112609;27;45753;-86
2021/11/10 08:40:08;;;;;;;;;64.75;48.75;;;;;14.79;100.00;102016.31;5124286;27;45721;-86
2021/11/10 08:42:34;;;;;;;;;57.50;45.25;;;;;14.96;100.00;102021.38;5121286;27;45985;-86
2021/11/10 08:45:05;;;;;;;;;61.25;43.50;;;;;15.92;100.00;102030.03;5121677;27;45429;-87
2021/11/10 08:47:31;;;;;;;;;55.00;44.25;;;;;16.94;100.00;102018.19;5131377;27;45475;-87
2021/11/10 08:49:57;;;;;;;;;57.75;46.00;;;;;17.97;100.00;102020.13;5106606;27;48213;-87
2021/11/10 08:52:23;;;;;;;;;57.25;45.25;;;;;18.71;98.98;102017.78;5122952;27;45943;-87
2021/11/10 08:54:49;;;;;;;;;56.75;43.00;;;;;18.62;91.99;102016.72;5102419;27;45496;-87
2021/11/10 08:57:14;;;;;;;;;56.75;45.50;;;;;18.28;92.45;102007.88;5102621;27;45407;-87
2021/11/10 08:59:40;;;;;;;;;62.25;48.25;;;;;18.17;90.22;102010.53;5126491;27;45335;-87
2021/11/10 09:02:06;;;;;;;;;68.75;49.00;;;;;18.06;88.81;102011.38;5131822;27;45471;-87
2021/11/10 09:04:31;;;;;;;;;60.75;46.25;;;;;17.92;85.89;102008.94;5103261;27;45354;-87
2021/11/10 09:06:57;;;;;;;;;64.00;49.50;;;;;17.59;88.41;102023.06;5121374;27;45222;-88
2021/11/10 09:09:22;;;;;;;;;60.00;46.50;;;;;17.45;88.00;102015.25;5102592;27;47254;-87
2021/11/10 09:11:49;;;;;;;;;57.25;47.00;;;;;17.42;87.96;102023.50;5124484;27;45398;-87
2021/11/10 09:14:16;;;;;;;;;69.75;50.25;;;;;17.41;88.29;102019.97;5105273;27;45551;-88
2021/11/10 09:16:41;;;;;;;;;66.50;52.00;;;;;17.36;89.23;102027.50;5103135;27;45406;-86
2021/11/10 09:19:07;;;;;;;;;63.25;48.25;;;;;17.44;89.22;102009.06;5119255;27;46393;-87
2021/11/10 09:21:33;;;;;;;;;64.25;49.50;;;;;17.48;89.30;101999.00;5102653;27;45968;-87
2021/11/10 09:23:58;;;;;;;;;62.50;48.00;;;;;17.48;89.49;101994.47;5120697;27;45509;-87
2021/11/10 09:26:24;;;;;;;;;68.50;52.00;;;;;17.51;89.29;101993.41;5120506;27;45369;-87
2021/11/10 09:28:50;;;;;;;;;64.50;48.75;;;;;17.54;89.38;101993.19;5119874;27;46844;-87
2021/11/10 09:31:15;;;;;;;;;62.00;49.00;;;;;17.59;89.32;101993.66;5101462;27;45931;-86
2021/11/10 09:33:42;;;;;;;;;66.25;49.25;;;;;17.71;89.67;101989.25;5101947;27;45312;-87
2021/11/10 09:36:09;;;;;;;;;65.75;51.50;;;;;17.81;89.82;101984.88;5120355;27;45469;-88
2021/11/10 09:38:35;;;;;;;;;68.75;50.75;;;;;17.95;89.07;101990.84;5102108;27;47503;-88
2021/11/10 09:41:02;;;;;;;;;66.00;51.25;;;;;18.41;87.18;101984.50;5102115;27;45511;-87
2021/11/10 09:43:34;;;;;;;;;69.75;53.00;;;;;18.73;87.53;101994.44;5101859;27;45526;-87
2021/11/10 09:46:00;;;;;;;;;71.25;52.50;;;;;18.67;84.21;101998.44;5120244;27;45853;-87
2021/11/10 09:48:26;;;;;;;;;70.00;54.25;;;;;18.73;83.07;101999.78;5101706;27;48101;-89
2021/11/10 09:50:53;;;;;;;;;76.00;56.50;;;;;18.92;79.99;102013.38;5102413;27;45441;-91
2021/11/10 09:53:19;;;;;;;;;69.75;54.75;;;;;19.01;79.22;102013.47;5103139;27;45422;-89
2021/11/10 09:55:44;;;;;;;;;72.25;54.25;;;;;19.26;80.14;102012.25;5122438;27;45362;-89
2021/11/10 09:58:10;;;;;;;;;74.00;55.00;;;;;19.53;76.69;102029.69;5122969;27;45545;-89
2021/11/10 10:00:55;;;;;;;;;70.00;52.50;;;;;19.73;75.65;102034.19;5117607;27;45323;-89
2021/11/10 10:03:22;;;;;;;;;69.50;50.50;;;;;19.86;76.19;102036.66;5136288;27;45367;-89
2021/11/10 10:05:49;;;;;;;;;71.50;51.75;;;;;19.84;73.83;102026.09;5121820;27;45204;-90
2021/11/10 10:08:20;;;;;;;;;64.25;50.75;;;;;19.92;71.67;102041.50;5120353;27;46208;-89
2021/11/10 10:10:47;;;;;;;;;69.75;51.25;;;;;19.78;68.47;102051.56;5101044;27;45881;-91
2021/11/10 10:13:13;;;;;;;;;65.00;49.00;;;;;19.75;71.40;102048.34;5102325;27;45328;-89
2021/11/10 10:15:42;;;;;;;;;73.50;56.00;;;;;19.82;69.49;102065.59;5102701;27;46055;-89
2021/11/10 10:18:17;;;;;;;;;71.25;58.00;;;;;19.73;67.34;102066.38;5101700;27;47753;-88
2021/11/10 10:20:45;;;;;;;;;71.00;56.75;;;;;19.77;69.46;102057.91;5102140;27;45763;-89
2021/11/10 10:23:15;;;;;;;;;68.00;52.50;;;;;19.73;68.51;102052.97;5120931;27;45336;-89
2021/11/10 10:25:43;;;;;;;;;72.50;56.25;;;;;19.70;67.56;102050.53;5122934;27;45501;-90
2021/11/10 10:28:11;;;;;;;;;71.75;56.00;;;;;19.71;69.68;102050.41;5106243;27;47181;-89
2021/11/10 10:31:05;;;;;;;;;70.00;56.75;;;;;19.90;69.49;102038.97;5106215;27;45345;-90
2021/11/10 10:33:34;;;;;;;;;66.25;53.50;;;;;19.94;70.61;102026.97;5123156;27;45184;-89
2021/11/10 10:36:06;;;;;;;;;68.50;53.00;;;;;20.08;69.07;102023.94;5102234;27;45598;-89
2021/11/10 10:38:34;;;;;;;;;73.25;57.75;;;;;20.10;66.83;102016.63;5100452;27;47357;-89
2021/11/10 10:41:01;;;;;;;;;50.50;43.25;;;;;20.10;68.43;102016.63;5102241;27;45334;-89
2021/11/10 10:43:28;;;;;;;;;74.75;59.75;;;;;20.30;67.89;102014.03;5101724;27;45451;-90
2021/11/10 10:45:56;;;;;;;;;73.25;55.50;;;;;20.36;68.59;102016.19;5102352;27;45380;-90
2021/11/10 10:48:22;;;;;;;;;70.25;57.75;;;;;20.44;66.99;102005.63;5119960;27;45473;-90
2021/11/10 10:50:55;;;;;;;;;68.25;53.75;;;;;20.27;69.39;101984.78;5104390;27;45362;-86
2021/11/10 10:53:45;;;;;;;;;75.75;56.75;;;;;20.43;68.42;101990.50;5120052;27;45551;-85
2021/11/10 10:56:28;;;;;;;;;77.00;60.00;;;;;20.64;68.82;101985.91;5122754;27;45484;-86
2021/11/10 10:58:58;;;;;;;;;79.25;60.00;;;;;20.81;68.30;101985.22;5121072;27;46305;-83
2021/11/10 11:01:28;;;;;;;;;76.50;58.00;;;;;20.84;67.46;101982.25;5105553;27;46141;-89
2021/11/10 11:03:58;;;;;;;;;80.25;61.00;;;;;20.87;66.29;101981.97;5108787;27;45378;-89